sensor_id;sensor_type;location;lat;lon;timestamp;P1;durP1;ratioP1;P2;durP2;ratioP2
23346;SDS011;36852;45.466;11.066;2023-07-24T00:01:11;19.67;;;12.40;;
23346;SDS011;36852;45.466;11.066;2023-07-24T00:03:38;19.73;;;11.95;;
23346;SDS011;36852;45.466;11.066;2023-07-24T00:06:06;19.25;;;11.95;;
23346;SDS011;36852;45.466;11.066;2023-07-24T00:08:33;20.00;;;12.23;;
23346;SDS011;36852;45.466;11.066;2023-07-24T00:11:01;21.25;;;11.40;;
23346;SDS011;36852;45.466;11.066;2023-07-24T00:13:30;22.70;;;12.20;;
23346;SDS011;36852;45.466;11.066;2023-07-24T00:15:58;19.12;;;12.03;;
23346;SDS011;36852;45.466;11.066;2023-07-24T00:18:26;20.27;;;12.20;;
23346;SDS011;36852;45.466;11.066;2023-07-24T00:20:54;21.15;;;11.90;;
23346;SDS011;36852;45.466;11.066;2023-07-24T00:23:22;18.48;;;11.83;;
23346;SDS011;36852;45.466;11.066;2023-07-24T00:25:50;19.80;;;12.13;;
23346;SDS011;36852;45.466;11.066;2023-07-24T00:28:17;23.10;;;12.05;;
23346;SDS011;36852;45.466;11.066;2023-07-24T00:30:47;20.43;;;12.45;;
23346;SDS011;36852;45.466;11.066;2023-07-24T00:33:17;24.20;;;11.97;;
23346;SDS011;36852;45.466;11.066;2023-07-24T00:35:44;19.90;;;11.57;;
23346;SDS011;36852;45.466;11.066;2023-07-24T00:38:12;19.95;;;12.05;;
23346;SDS011;36852;45.466;11.066;2023-07-24T00:40:40;18.02;;;11.50;;
23346;SDS011;36852;45.466;11.066;2023-07-24T00:43:08;18.85;;;11.75;;
23346;SDS011;36852;45.466;11.066;2023-07-24T00:45:36;17.48;;;10.80;;
23346;SDS011;36852;45.466;11.066;2023-07-24T00:48:05;20.48;;;11.97;;
23346;SDS011;36852;45.466;11.066;2023-07-24T00:50:33;21.87;;;12.78;;
23346;SDS011;36852;45.466;11.066;2023-07-24T00:53:01;19.62;;;11.78;;
23346;SDS011;36852;45.466;11.066;2023-07-24T00:55:29;19.12;;;12.20;;
23346;SDS011;36852;45.466;11.066;2023-07-24T00:57:58;18.32;;;11.95;;
23346;SDS011;36852;45.466;11.066;2023-07-24T01:00:27;19.32;;;11.63;;
23346;SDS011;36852;45.466;11.066;2023-07-24T01:02:55;20.50;;;12.60;;
23346;SDS011;36852;45.466;11.066;2023-07-24T01:05:24;18.62;;;11.48;;
23346;SDS011;36852;45.466;11.066;2023-07-24T01:07:53;17.50;;;10.72;;
23346;SDS011;36852;45.466;11.066;2023-07-24T01:10:21;17.80;;;11.70;;
23346;SDS011;36852;45.466;11.066;2023-07-24T01:15:34;19.60;;;11.12;;
23346;SDS011;36852;45.466;11.066;2023-07-24T01:18:12;20.50;;;11.30;;
23346;SDS011;36852;45.466;11.066;2023-07-24T01:20:47;18.87;;;11.40;;
23346;SDS011;36852;45.466;11.066;2023-07-24T01:25:56;21.35;;;12.28;;
23346;SDS011;36852;45.466;11.066;2023-07-24T01:28:29;16.90;;;11.05;;
23346;SDS011;36852;45.466;11.066;2023-07-24T01:30:57;17.17;;;11.08;;
23346;SDS011;36852;45.466;11.066;2023-07-24T01:33:25;17.90;;;11.57;;
23346;SDS011;36852;45.466;11.066;2023-07-24T01:35:57;20.15;;;11.65;;
23346;SDS011;36852;45.466;11.066;2023-07-24T01:38:27;17.48;;;10.72;;
23346;SDS011;36852;45.466;11.066;2023-07-24T01:40:55;18.20;;;12.05;;
23346;SDS011;36852;45.466;11.066;2023-07-24T01:43:25;18.17;;;11.40;;
23346;SDS011;36852;45.466;11.066;2023-07-24T01:45:56;18.37;;;10.53;;
23346;SDS011;36852;45.466;11.066;2023-07-24T01:48:24;17.95;;;11.60;;
23346;SDS011;36852;45.466;11.066;2023-07-24T01:50:53;19.07;;;12.58;;
23346;SDS011;36852;45.466;11.066;2023-07-24T01:53:21;19.40;;;11.78;;
23346;SDS011;36852;45.466;11.066;2023-07-24T01:55:48;22.07;;;12.15;;
23346;SDS011;36852;45.466;11.066;2023-07-24T01:58:16;22.20;;;12.25;;
23346;SDS011;36852;45.466;11.066;2023-07-24T02:00:47;18.25;;;11.78;;
23346;SDS011;36852;45.466;11.066;2023-07-24T02:03:15;18.67;;;11.63;;
23346;SDS011;36852;45.466;11.066;2023-07-24T02:05:48;19.17;;;11.20;;
23346;SDS011;36852;45.466;11.066;2023-07-24T02:08:17;19.83;;;11.37;;
23346;SDS011;36852;45.466;11.066;2023-07-24T02:10:48;18.17;;;11.33;;
23346;SDS011;36852;45.466;11.066;2023-07-24T02:13:18;20.72;;;11.75;;
23346;SDS011;36852;45.466;11.066;2023-07-24T02:15:47;17.75;;;11.70;;
23346;SDS011;36852;45.466;11.066;2023-07-24T02:18:17;18.85;;;11.78;;
23346;SDS011;36852;45.466;11.066;2023-07-24T02:20:50;19.95;;;11.38;;
23346;SDS011;36852;45.466;11.066;2023-07-24T02:23:20;18.07;;;10.85;;
23346;SDS011;36852;45.466;11.066;2023-07-24T02:25:51;18.20;;;11.57;;
23346;SDS011;36852;45.466;11.066;2023-07-24T02:28:20;19.82;;;11.33;;
23346;SDS011;36852;45.466;11.066;2023-07-24T02:30:48;18.48;;;10.88;;
23346;SDS011;36852;45.466;11.066;2023-07-24T02:33:16;20.48;;;12.07;;
23346;SDS011;36852;45.466;11.066;2023-07-24T02:35:44;18.75;;;11.93;;
23346;SDS011;36852;45.466;11.066;2023-07-24T02:38:13;17.57;;;10.98;;
23346;SDS011;36852;45.466;11.066;2023-07-24T02:40:41;21.17;;;12.28;;
23346;SDS011;36852;45.466;11.066;2023-07-24T02:43:13;17.52;;;10.95;;
23346;SDS011;36852;45.466;11.066;2023-07-24T02:45:42;18.10;;;12.25;;
23346;SDS011;36852;45.466;11.066;2023-07-24T02:48:11;18.85;;;11.60;;
23346;SDS011;36852;45.466;11.066;2023-07-24T02:50:38;17.98;;;11.15;;
23346;SDS011;36852;45.466;11.066;2023-07-24T02:53:06;22.90;;;11.22;;
23346;SDS011;36852;45.466;11.066;2023-07-24T02:55:34;25.20;;;11.93;;
23346;SDS011;36852;45.466;11.066;2023-07-24T02:58:01;20.17;;;11.95;;
23346;SDS011;36852;45.466;11.066;2023-07-24T03:00:29;23.10;;;12.07;;
23346;SDS011;36852;45.466;11.066;2023-07-24T03:03:00;18.82;;;11.35;;
23346;SDS011;36852;45.466;11.066;2023-07-24T03:05:28;19.85;;;11.15;;
23346;SDS011;36852;45.466;11.066;2023-07-24T03:07:59;20.08;;;11.45;;
23346;SDS011;36852;45.466;11.066;2023-07-24T03:10:29;14.83;;;10.53;;
23346;SDS011;36852;45.466;11.066;2023-07-24T03:12:56;14.60;;;10.10;;
23346;SDS011;36852;45.466;11.066;2023-07-24T03:15:25;19.98;;;11.25;;
23346;SDS011;36852;45.466;11.066;2023-07-24T03:17:53;17.65;;;11.05;;
23346;SDS011;36852;45.466;11.066;2023-07-24T03:20:21;22.60;;;11.18;;
23346;SDS011;36852;45.466;11.066;2023-07-24T03:22:49;16.85;;;10.58;;
23346;SDS011;36852;45.466;11.066;2023-07-24T03:25:17;18.95;;;11.80;;
23346;SDS011;36852;45.466;11.066;2023-07-24T03:27:49;22.13;;;10.82;;
23346;SDS011;36852;45.466;11.066;2023-07-24T03:30:17;18.82;;;12.18;;
23346;SDS011;36852;45.466;11.066;2023-07-24T03:32:47;21.57;;;11.78;;
23346;SDS011;36852;45.466;11.066;2023-07-24T03:35:15;17.07;;;10.80;;
23346;SDS011;36852;45.466;11.066;2023-07-24T03:37:44;18.02;;;11.15;;
23346;SDS011;36852;45.466;11.066;2023-07-24T03:40:12;21.68;;;11.55;;
23346;SDS011;36852;45.466;11.066;2023-07-24T03:42:39;18.05;;;11.38;;
23346;SDS011;36852;45.466;11.066;2023-07-24T03:45:10;19.20;;;11.68;;
23346;SDS011;36852;45.466;11.066;2023-07-24T03:47:37;16.82;;;11.78;;
23346;SDS011;36852;45.466;11.066;2023-07-24T03:50:07;19.50;;;11.97;;
23346;SDS011;36852;45.466;11.066;2023-07-24T03:52:36;18.10;;;10.68;;
23346;SDS011;36852;45.466;11.066;2023-07-24T03:55:04;18.48;;;11.33;;
23346;SDS011;36852;45.466;11.066;2023-07-24T03:57:33;17.77;;;10.70;;
23346;SDS011;36852;45.466;11.066;2023-07-24T04:00:01;18.45;;;11.00;;
23346;SDS011;36852;45.466;11.066;2023-07-24T04:02:32;18.57;;;11.25;;
23346;SDS011;36852;45.466;11.066;2023-07-24T04:05:00;19.95;;;11.00;;
23346;SDS011;36852;45.466;11.066;2023-07-24T04:07:28;19.67;;;10.40;;
23346;SDS011;36852;45.466;11.066;2023-07-24T04:09:57;20.62;;;10.78;;
23346;SDS011;36852;45.466;11.066;2023-07-24T04:12:24;18.02;;;10.23;;
23346;SDS011;36852;45.466;11.066;2023-07-24T04:14:52;22.70;;;11.12;;
23346;SDS011;36852;45.466;11.066;2023-07-24T04:17:20;16.77;;;10.80;;
23346;SDS011;36852;45.466;11.066;2023-07-24T04:19:48;20.40;;;10.32;;
23346;SDS011;36852;45.466;11.066;2023-07-24T04:22:15;16.80;;;11.53;;
23346;SDS011;36852;45.466;11.066;2023-07-24T04:24:46;23.62;;;15.23;;
23346;SDS011;36852;45.466;11.066;2023-07-24T04:27:14;21.55;;;11.93;;
23346;SDS011;36852;45.466;11.066;2023-07-24T04:29:43;19.85;;;12.00;;
23346;SDS011;36852;45.466;11.066;2023-07-24T04:32:10;19.10;;;11.53;;
23346;SDS011;36852;45.466;11.066;2023-07-24T04:34:39;20.77;;;11.33;;
23346;SDS011;36852;45.466;11.066;2023-07-24T04:37:07;17.02;;;11.10;;
23346;SDS011;36852;45.466;11.066;2023-07-24T04:39:38;21.23;;;12.28;;
23346;SDS011;36852;45.466;11.066;2023-07-24T04:42:08;19.23;;;11.45;;
23346;SDS011;36852;45.466;11.066;2023-07-24T04:44:37;16.12;;;11.00;;
23346;SDS011;36852;45.466;11.066;2023-07-24T04:47:07;21.00;;;12.30;;
23346;SDS011;36852;45.466;11.066;2023-07-24T04:49:34;16.15;;;11.73;;
23346;SDS011;36852;45.466;11.066;2023-07-24T04:52:05;20.45;;;11.95;;
23346;SDS011;36852;45.466;11.066;2023-07-24T04:54:34;21.85;;;12.47;;
23346;SDS011;36852;45.466;11.066;2023-07-24T04:57:02;20.95;;;12.03;;
23346;SDS011;36852;45.466;11.066;2023-07-24T04:59:30;27.02;;;12.80;;
23346;SDS011;36852;45.466;11.066;2023-07-24T05:01:58;19.80;;;11.83;;
23346;SDS011;36852;45.466;11.066;2023-07-24T05:04:26;22.15;;;13.00;;
23346;SDS011;36852;45.466;11.066;2023-07-24T05:06:54;21.25;;;12.18;;
23346;SDS011;36852;45.466;11.066;2023-07-24T05:09:22;22.22;;;12.93;;
23346;SDS011;36852;45.466;11.066;2023-07-24T05:11:50;21.82;;;12.70;;
23346;SDS011;36852;45.466;11.066;2023-07-24T05:14:18;20.60;;;12.03;;
23346;SDS011;36852;45.466;11.066;2023-07-24T05:16:45;19.23;;;11.90;;
23346;SDS011;36852;45.466;11.066;2023-07-24T05:19:14;23.42;;;11.22;;
23346;SDS011;36852;45.466;11.066;2023-07-24T05:21:41;19.32;;;11.80;;
23346;SDS011;36852;45.466;11.066;2023-07-24T05:24:09;20.23;;;11.73;;
23346;SDS011;36852;45.466;11.066;2023-07-24T05:26:37;19.90;;;10.90;;
23346;SDS011;36852;45.466;11.066;2023-07-24T05:29:05;20.20;;;11.12;;
23346;SDS011;36852;45.466;11.066;2023-07-24T05:31:36;16.82;;;10.88;;
23346;SDS011;36852;45.466;11.066;2023-07-24T05:34:04;20.27;;;11.78;;
23346;SDS011;36852;45.466;11.066;2023-07-24T05:36:32;18.67;;;11.03;;
23346;SDS011;36852;45.466;11.066;2023-07-24T05:39:00;21.65;;;11.15;;
23346;SDS011;36852;45.466;11.066;2023-07-24T05:41:30;18.67;;;11.93;;
23346;SDS011;36852;45.466;11.066;2023-07-24T05:43:58;25.12;;;11.68;;
23346;SDS011;36852;45.466;11.066;2023-07-24T05:46:26;18.82;;;10.98;;
23346;SDS011;36852;45.466;11.066;2023-07-24T05:48:55;25.17;;;11.75;;
23346;SDS011;36852;45.466;11.066;2023-07-24T05:51:24;21.65;;;11.88;;
23346;SDS011;36852;45.466;11.066;2023-07-24T05:53:51;17.87;;;10.98;;
23346;SDS011;36852;45.466;11.066;2023-07-24T05:56:19;19.37;;;12.60;;
23346;SDS011;36852;45.466;11.066;2023-07-24T05:58:49;18.85;;;11.28;;
23346;SDS011;36852;45.466;11.066;2023-07-24T06:01:17;21.23;;;13.03;;
23346;SDS011;36852;45.466;11.066;2023-07-24T06:03:45;19.45;;;11.30;;
23346;SDS011;36852;45.466;11.066;2023-07-24T06:06:13;18.50;;;11.30;;
23346;SDS011;36852;45.466;11.066;2023-07-24T06:08:44;19.10;;;12.20;;
23346;SDS011;36852;45.466;11.066;2023-07-24T06:11:11;19.17;;;11.68;;
23346;SDS011;36852;45.466;11.066;2023-07-24T06:13:39;17.10;;;11.60;;
23346;SDS011;36852;45.466;11.066;2023-07-24T06:16:07;20.00;;;12.95;;
23346;SDS011;36852;45.466;11.066;2023-07-24T06:18:34;22.40;;;12.13;;
23346;SDS011;36852;45.466;11.066;2023-07-24T06:21:02;21.70;;;12.37;;
23346;SDS011;36852;45.466;11.066;2023-07-24T06:23:33;22.80;;;13.08;;
23346;SDS011;36852;45.466;11.066;2023-07-24T06:26:01;21.97;;;12.43;;
23346;SDS011;36852;45.466;11.066;2023-07-24T06:28:28;22.52;;;11.55;;
23346;SDS011;36852;45.466;11.066;2023-07-24T06:30:56;19.23;;;12.35;;
23346;SDS011;36852;45.466;11.066;2023-07-24T06:33:23;23.92;;;13.05;;
23346;SDS011;36852;45.466;11.066;2023-07-24T06:35:51;20.27;;;11.78;;
23346;SDS011;36852;45.466;11.066;2023-07-24T06:38:19;18.52;;;12.07;;
23346;SDS011;36852;45.466;11.066;2023-07-24T06:40:48;19.17;;;11.57;;
23346;SDS011;36852;45.466;11.066;2023-07-24T06:43:16;20.48;;;11.40;;
23346;SDS011;36852;45.466;11.066;2023-07-24T06:45:44;17.50;;;11.25;;
23346;SDS011;36852;45.466;11.066;2023-07-24T06:48:12;20.40;;;12.30;;
23346;SDS011;36852;45.466;11.066;2023-07-24T06:50:39;26.25;;;12.30;;
23346;SDS011;36852;45.466;11.066;2023-07-24T06:53:11;20.65;;;11.88;;
23346;SDS011;36852;45.466;11.066;2023-07-24T06:55:40;24.85;;;11.83;;
23346;SDS011;36852;45.466;11.066;2023-07-24T06:58:10;22.93;;;11.35;;
23346;SDS011;36852;45.466;11.066;2023-07-24T07:00:37;17.52;;;11.40;;
23346;SDS011;36852;45.466;11.066;2023-07-24T07:03:05;19.23;;;10.78;;
23346;SDS011;36852;45.466;11.066;2023-07-24T07:05:34;15.20;;;10.55;;
23346;SDS011;36852;45.466;11.066;2023-07-24T07:08:02;18.50;;;10.45;;
23346;SDS011;36852;45.466;11.066;2023-07-24T07:10:32;16.57;;;10.43;;
23346;SDS011;36852;45.466;11.066;2023-07-24T07:13:00;16.32;;;9.65;;
23346;SDS011;36852;45.466;11.066;2023-07-24T07:15:28;11.08;;;8.10;;
23346;SDS011;36852;45.466;11.066;2023-07-24T07:17:57;13.85;;;8.43;;
23346;SDS011;36852;45.466;11.066;2023-07-24T07:20:24;17.25;;;9.00;;
23346;SDS011;36852;45.466;11.066;2023-07-24T07:22:52;13.22;;;8.90;;
23346;SDS011;36852;45.466;11.066;2023-07-24T07:25:20;17.48;;;8.53;;
23346;SDS011;36852;45.466;11.066;2023-07-24T07:27:48;16.62;;;8.58;;
23346;SDS011;36852;45.466;11.066;2023-07-24T07:30:16;15.55;;;8.35;;
23346;SDS011;36852;45.466;11.066;2023-07-24T07:32:43;13.58;;;8.33;;
23346;SDS011;36852;45.466;11.066;2023-07-24T07:35:11;15.13;;;8.38;;
23346;SDS011;36852;45.466;11.066;2023-07-24T07:37:39;13.62;;;8.65;;
23346;SDS011;36852;45.466;11.066;2023-07-24T07:40:07;14.38;;;8.43;;
23346;SDS011;36852;45.466;11.066;2023-07-24T07:42:35;12.43;;;8.33;;
23346;SDS011;36852;45.466;11.066;2023-07-24T07:45:05;15.43;;;8.75;;
23346;SDS011;36852;45.466;11.066;2023-07-24T07:47:34;17.77;;;8.75;;
23346;SDS011;36852;45.466;11.066;2023-07-24T07:50:02;14.45;;;8.38;;
23346;SDS011;36852;45.466;11.066;2023-07-24T07:52:30;14.90;;;9.23;;
23346;SDS011;36852;45.466;11.066;2023-07-24T07:54:58;14.13;;;9.48;;
23346;SDS011;36852;45.466;11.066;2023-07-24T07:57:26;14.83;;;9.43;;
23346;SDS011;36852;45.466;11.066;2023-07-24T07:59:54;14.47;;;9.60;;
23346;SDS011;36852;45.466;11.066;2023-07-24T08:02:22;17.20;;;9.18;;
23346;SDS011;36852;45.466;11.066;2023-07-24T08:04:50;18.30;;;10.50;;
23346;SDS011;36852;45.466;11.066;2023-07-24T08:07:18;15.88;;;10.38;;
23346;SDS011;36852;45.466;11.066;2023-07-24T08:09:46;12.93;;;9.20;;
23346;SDS011;36852;45.466;11.066;2023-07-24T08:12:14;14.30;;;8.83;;
23346;SDS011;36852;45.466;11.066;2023-07-24T08:14:42;11.15;;;8.70;;
23346;SDS011;36852;45.466;11.066;2023-07-24T08:17:10;14.58;;;9.23;;
23346;SDS011;36852;45.466;11.066;2023-07-24T08:19:37;13.20;;;8.60;;
23346;SDS011;36852;45.466;11.066;2023-07-24T08:22:05;14.58;;;9.63;;
23346;SDS011;36852;45.466;11.066;2023-07-24T08:24:36;12.78;;;9.93;;
23346;SDS011;36852;45.466;11.066;2023-07-24T08:27:04;12.55;;;8.90;;
23346;SDS011;36852;45.466;11.066;2023-07-24T08:29:33;16.35;;;9.95;;
23346;SDS011;36852;45.466;11.066;2023-07-24T08:32:04;15.25;;;10.05;;
23346;SDS011;36852;45.466;11.066;2023-07-24T08:34:32;15.05;;;9.75;;
23346;SDS011;36852;45.466;11.066;2023-07-24T08:37:00;13.13;;;9.88;;
23346;SDS011;36852;45.466;11.066;2023-07-24T08:39:28;14.05;;;9.70;;
23346;SDS011;36852;45.466;11.066;2023-07-24T08:41:59;15.70;;;9.50;;
23346;SDS011;36852;45.466;11.066;2023-07-24T08:44:27;16.95;;;10.68;;
23346;SDS011;36852;45.466;11.066;2023-07-24T08:46:58;11.90;;;8.65;;
23346;SDS011;36852;45.466;11.066;2023-07-24T08:49:28;12.85;;;9.28;;
23346;SDS011;36852;45.466;11.066;2023-07-24T08:51:57;18.02;;;9.30;;
23346;SDS011;36852;45.466;11.066;2023-07-24T08:54:28;14.40;;;9.08;;
23346;SDS011;36852;45.466;11.066;2023-07-24T08:56:58;16.77;;;9.05;;
23346;SDS011;36852;45.466;11.066;2023-07-24T08:59:26;15.50;;;8.78;;
23346;SDS011;36852;45.466;11.066;2023-07-24T09:01:57;13.93;;;8.85;;
23346;SDS011;36852;45.466;11.066;2023-07-24T09:04:24;15.10;;;9.75;;
23346;SDS011;36852;45.466;11.066;2023-07-24T09:06:53;13.75;;;8.78;;
23346;SDS011;36852;45.466;11.066;2023-07-24T09:09:28;13.68;;;8.35;;
23346;SDS011;36852;45.466;11.066;2023-07-24T09:11:56;16.97;;;9.08;;
23346;SDS011;36852;45.466;11.066;2023-07-24T09:14:27;14.50;;;9.20;;
23346;SDS011;36852;45.466;11.066;2023-07-24T09:17:02;12.07;;;8.53;;
23346;SDS011;36852;45.466;11.066;2023-07-24T09:19:32;15.15;;;8.20;;
23346;SDS011;36852;45.466;11.066;2023-07-24T09:22:07;15.98;;;8.25;;
23346;SDS011;36852;45.466;11.066;2023-07-24T09:24:38;20.00;;;9.00;;
23346;SDS011;36852;45.466;11.066;2023-07-24T09:27:08;14.85;;;9.23;;
23346;SDS011;36852;45.466;11.066;2023-07-24T09:29:40;16.15;;;9.55;;
23346;SDS011;36852;45.466;11.066;2023-07-24T09:32:08;17.67;;;9.53;;
23346;SDS011;36852;45.466;11.066;2023-07-24T09:34:49;13.30;;;8.33;;
23346;SDS011;36852;45.466;11.066;2023-07-24T09:37:27;13.75;;;8.28;;
23346;SDS011;36852;45.466;11.066;2023-07-24T09:39:58;13.60;;;9.53;;
23346;SDS011;36852;45.466;11.066;2023-07-24T09:42:30;16.25;;;8.40;;
23346;SDS011;36852;45.466;11.066;2023-07-24T09:45:00;12.30;;;8.15;;
23346;SDS011;36852;45.466;11.066;2023-07-24T09:47:30;13.72;;;8.50;;
23346;SDS011;36852;45.466;11.066;2023-07-24T09:50:02;11.45;;;8.25;;
23346;SDS011;36852;45.466;11.066;2023-07-24T09:52:31;12.55;;;7.53;;
23346;SDS011;36852;45.466;11.066;2023-07-24T09:55:11;12.98;;;8.55;;
23346;SDS011;36852;45.466;11.066;2023-07-24T09:57:39;12.53;;;8.00;;
23346;SDS011;36852;45.466;11.066;2023-07-24T10:00:08;10.70;;;7.97;;
23346;SDS011;36852;45.466;11.066;2023-07-24T10:02:37;11.45;;;7.75;;
23346;SDS011;36852;45.466;11.066;2023-07-24T10:05:05;13.93;;;8.38;;
23346;SDS011;36852;45.466;11.066;2023-07-24T10:07:33;17.77;;;8.65;;
23346;SDS011;36852;45.466;11.066;2023-07-24T10:10:02;15.53;;;8.58;;
23346;SDS011;36852;45.466;11.066;2023-07-24T10:12:30;16.40;;;8.48;;
23346;SDS011;36852;45.466;11.066;2023-07-24T10:14:59;13.25;;;8.08;;
23346;SDS011;36852;45.466;11.066;2023-07-24T10:17:40;14.18;;;8.43;;
23346;SDS011;36852;45.466;11.066;2023-07-24T10:20:10;13.22;;;8.50;;
23346;SDS011;36852;45.466;11.066;2023-07-24T10:22:42;14.73;;;8.48;;
23346;SDS011;36852;45.466;11.066;2023-07-24T10:25:13;11.53;;;7.50;;
23346;SDS011;36852;45.466;11.066;2023-07-24T10:27:44;11.85;;;7.50;;
23346;SDS011;36852;45.466;11.066;2023-07-24T10:30:14;13.98;;;8.50;;
23346;SDS011;36852;45.466;11.066;2023-07-24T10:32:46;10.35;;;8.15;;
23346;SDS011;36852;45.466;11.066;2023-07-24T10:35:16;12.20;;;8.68;;
23346;SDS011;36852;45.466;11.066;2023-07-24T10:37:45;14.53;;;9.15;;
23346;SDS011;36852;45.466;11.066;2023-07-24T10:40:19;15.03;;;8.28;;
23346;SDS011;36852;45.466;11.066;2023-07-24T10:42:58;15.05;;;8.53;;
23346;SDS011;36852;45.466;11.066;2023-07-24T10:45:39;15.72;;;9.05;;
23346;SDS011;36852;45.466;11.066;2023-07-24T10:48:09;12.35;;;9.20;;
23346;SDS011;36852;45.466;11.066;2023-07-24T10:50:46;17.20;;;10.00;;
23346;SDS011;36852;45.466;11.066;2023-07-24T10:53:15;15.20;;;8.50;;
23346;SDS011;36852;45.466;11.066;2023-07-24T10:55:46;14.83;;;8.63;;
23346;SDS011;36852;45.466;11.066;2023-07-24T10:58:14;13.60;;;8.40;;
23346;SDS011;36852;45.466;11.066;2023-07-24T11:00:43;16.60;;;8.83;;
23346;SDS011;36852;45.466;11.066;2023-07-24T11:03:12;15.72;;;8.60;;
23346;SDS011;36852;45.466;11.066;2023-07-24T11:05:42;17.73;;;9.38;;
23346;SDS011;36852;45.466;11.066;2023-07-24T11:08:12;13.25;;;8.78;;
23346;SDS011;36852;45.466;11.066;2023-07-24T11:10:45;12.28;;;8.23;;
23346;SDS011;36852;45.466;11.066;2023-07-24T11:13:19;17.70;;;8.80;;
23346;SDS011;36852;45.466;11.066;2023-07-24T11:15:46;12.13;;;8.58;;
23346;SDS011;36852;45.466;11.066;2023-07-24T11:18:15;15.65;;;8.70;;
23346;SDS011;36852;45.466;11.066;2023-07-24T11:20:44;15.28;;;8.98;;
23346;SDS011;36852;45.466;11.066;2023-07-24T11:23:17;15.98;;;8.93;;
23346;SDS011;36852;45.466;11.066;2023-07-24T11:25:46;13.32;;;8.95;;
23346;SDS011;36852;45.466;11.066;2023-07-24T11:28:15;14.33;;;8.60;;
23346;SDS011;36852;45.466;11.066;2023-07-24T11:30:43;12.68;;;9.13;;
23346;SDS011;36852;45.466;11.066;2023-07-24T11:33:11;12.25;;;8.50;;
23346;SDS011;36852;45.466;11.066;2023-07-24T11:35:44;13.78;;;8.95;;
23346;SDS011;36852;45.466;11.066;2023-07-24T11:38:13;14.07;;;8.65;;
23346;SDS011;36852;45.466;11.066;2023-07-24T11:40:41;14.73;;;8.63;;
23346;SDS011;36852;45.466;11.066;2023-07-24T11:43:17;14.38;;;8.48;;
23346;SDS011;36852;45.466;11.066;2023-07-24T11:45:47;12.15;;;8.63;;
23346;SDS011;36852;45.466;11.066;2023-07-24T11:48:23;15.50;;;8.88;;
23346;SDS011;36852;45.466;11.066;2023-07-24T11:50:53;19.55;;;9.08;;
23346;SDS011;36852;45.466;11.066;2023-07-24T11:53:26;11.93;;;8.15;;
23346;SDS011;36852;45.466;11.066;2023-07-24T11:55:56;15.85;;;8.73;;
23346;SDS011;36852;45.466;11.066;2023-07-24T11:58:26;15.20;;;8.70;;
23346;SDS011;36852;45.466;11.066;2023-07-24T12:00:55;14.25;;;8.45;;
23346;SDS011;36852;45.466;11.066;2023-07-24T12:03:24;15.53;;;8.55;;
23346;SDS011;36852;45.466;11.066;2023-07-24T12:05:54;13.75;;;7.83;;
23346;SDS011;36852;45.466;11.066;2023-07-24T12:08:32;13.98;;;9.33;;
23346;SDS011;36852;45.466;11.066;2023-07-24T12:11:01;12.35;;;8.03;;
23346;SDS011;36852;45.466;11.066;2023-07-24T12:13:30;11.30;;;8.10;;
23346;SDS011;36852;45.466;11.066;2023-07-24T12:16:01;12.50;;;7.78;;
23346;SDS011;36852;45.466;11.066;2023-07-24T12:18:29;12.18;;;8.38;;
23346;SDS011;36852;45.466;11.066;2023-07-24T12:20:56;11.43;;;7.60;;
23346;SDS011;36852;45.466;11.066;2023-07-24T12:23:25;12.50;;;8.48;;
23346;SDS011;36852;45.466;11.066;2023-07-24T12:25:52;10.93;;;7.60;;
23346;SDS011;36852;45.466;11.066;2023-07-24T12:28:20;15.48;;;8.35;;
23346;SDS011;36852;45.466;11.066;2023-07-24T12:30:48;11.20;;;7.62;;
23346;SDS011;36852;45.466;11.066;2023-07-24T12:33:16;12.55;;;7.90;;
23346;SDS011;36852;45.466;11.066;2023-07-24T12:35:44;10.98;;;7.97;;
23346;SDS011;36852;45.466;11.066;2023-07-24T12:38:13;14.03;;;8.20;;
23346;SDS011;36852;45.466;11.066;2023-07-24T12:40:41;15.25;;;8.20;;
23346;SDS011;36852;45.466;11.066;2023-07-24T12:43:11;12.15;;;8.70;;
23346;SDS011;36852;45.466;11.066;2023-07-24T12:45:39;17.00;;;8.63;;
23346;SDS011;36852;45.466;11.066;2023-07-24T12:48:07;14.93;;;8.35;;
23346;SDS011;36852;45.466;11.066;2023-07-24T12:50:35;18.57;;;8.78;;
23346;SDS011;36852;45.466;11.066;2023-07-24T12:53:04;14.78;;;8.78;;
23346;SDS011;36852;45.466;11.066;2023-07-24T12:55:34;15.43;;;8.23;;
23346;SDS011;36852;45.466;11.066;2023-07-24T12:58:02;15.78;;;8.25;;
23346;SDS011;36852;45.466;11.066;2023-07-24T13:00:33;13.15;;;8.35;;
23346;SDS011;36852;45.466;11.066;2023-07-24T13:03:01;12.85;;;8.70;;
23346;SDS011;36852;45.466;11.066;2023-07-24T13:05:28;13.88;;;8.50;;
23346;SDS011;36852;45.466;11.066;2023-07-24T13:07:56;13.65;;;9.13;;
23346;SDS011;36852;45.466;11.066;2023-07-24T13:10:25;11.63;;;8.08;;
23346;SDS011;36852;45.466;11.066;2023-07-24T13:12:52;16.97;;;9.85;;
23346;SDS011;36852;45.466;11.066;2023-07-24T13:15:20;14.15;;;8.43;;
23346;SDS011;36852;45.466;11.066;2023-07-24T13:17:48;16.75;;;8.95;;
23346;SDS011;36852;45.466;11.066;2023-07-24T13:20:17;13.65;;;8.93;;
23346;SDS011;36852;45.466;11.066;2023-07-24T13:22:44;17.80;;;9.53;;
23346;SDS011;36852;45.466;11.066;2023-07-24T13:25:14;14.85;;;9.93;;
23346;SDS011;36852;45.466;11.066;2023-07-24T13:27:44;15.40;;;9.38;;
23346;SDS011;36852;45.466;11.066;2023-07-24T13:30:12;15.05;;;8.43;;
23346;SDS011;36852;45.466;11.066;2023-07-24T13:32:40;18.32;;;9.00;;
23346;SDS011;36852;45.466;11.066;2023-07-24T13:35:08;16.20;;;9.38;;
23346;SDS011;36852;45.466;11.066;2023-07-24T13:37:35;16.73;;;9.10;;
23346;SDS011;36852;45.466;11.066;2023-07-24T13:40:03;18.12;;;9.43;;
23346;SDS011;36852;45.466;11.066;2023-07-24T13:42:32;16.42;;;9.18;;
23346;SDS011;36852;45.466;11.066;2023-07-24T13:45:00;17.12;;;10.00;;
23346;SDS011;36852;45.466;11.066;2023-07-24T13:47:28;15.85;;;9.25;;
23346;SDS011;36852;45.466;11.066;2023-07-24T13:49:56;15.53;;;8.98;;
23346;SDS011;36852;45.466;11.066;2023-07-24T13:52:23;13.58;;;9.45;;
23346;SDS011;36852;45.466;11.066;2023-07-24T13:54:51;18.92;;;9.20;;
23346;SDS011;36852;45.466;11.066;2023-07-24T13:57:19;15.65;;;9.33;;
23346;SDS011;36852;45.466;11.066;2023-07-24T13:59:47;14.83;;;7.10;;
23346;SDS011;36852;45.466;11.066;2023-07-24T14:02:15;15.20;;;7.40;;
23346;SDS011;36852;45.466;11.066;2023-07-24T14:04:43;13.78;;;7.80;;
23346;SDS011;36852;45.466;11.066;2023-07-24T14:07:12;13.03;;;7.30;;
23346;SDS011;36852;45.466;11.066;2023-07-24T14:09:41;11.90;;;5.92;;
23346;SDS011;36852;45.466;11.066;2023-07-24T14:12:09;8.18;;;4.83;;
23346;SDS011;36852;45.466;11.066;2023-07-24T14:14:37;6.87;;;4.62;;
23346;SDS011;36852;45.466;11.066;2023-07-24T14:17:05;9.90;;;5.42;;
23346;SDS011;36852;45.466;11.066;2023-07-24T14:19:33;10.82;;;5.80;;
23346;SDS011;36852;45.466;11.066;2023-07-24T14:22:00;9.83;;;5.60;;
23346;SDS011;36852;45.466;11.066;2023-07-24T14:24:29;8.10;;;5.83;;
23346;SDS011;36852;45.466;11.066;2023-07-24T14:27:03;9.88;;;5.87;;
23346;SDS011;36852;45.466;11.066;2023-07-24T14:29:31;10.97;;;7.47;;
23346;SDS011;36852;45.466;11.066;2023-07-24T14:31:58;13.48;;;7.62;;